Vredenburgh, Alabama
Current Conditions -  °F | °C
As of 10:53 AM on Friday 19 Dec 2014 (Local Time) from KGZH Reporting Station
Overcast Overcast  
Wind Chill: 55°   Ceiling: 2500
Heat Index: 55°   Visibility: 10mi
Dew Point: 35°   Wind: 5mph
Humidity: 47%   Direction: 110°ESE
Pressure: 30.19"   Gusts: NA
Location:  31.83°N, 87.32°W
Report Text: KGZH 191653Z AUTO 11004KT 10SM OVC025 13/02 A3019 RMK AO2 SLP222 T01280017
Loading
Personal Weather Stations






























Interactive Weather Map New forecast layout! Learn more

10-Day Weather Forecast

Advertisements
Track Severe Weather on mobile